sensor_id;sensor_type;location;lat;lon;timestamp;P1;durP1;ratioP1;P2;durP2;ratioP2
4106;SDS011;21906;50.812;7.132;2024-01-15T00:02:17;23.17;;;11.07;;
4106;SDS011;21906;50.812;7.132;2024-01-15T00:04:43;20.90;;;10.50;;
4106;SDS011;21906;50.812;7.132;2024-01-15T00:07:09;24.90;;;11.33;;
4106;SDS011;21906;50.812;7.132;2024-01-15T00:09:39;19.43;;;10.67;;
4106;SDS011;21906;50.812;7.132;2024-01-15T00:12:05;22.90;;;10.43;;
4106;SDS011;21906;50.812;7.132;2024-01-15T00:14:31;22.90;;;10.70;;
4106;SDS011;21906;50.812;7.132;2024-01-15T00:16:57;21.63;;;10.20;;
4106;SDS011;21906;50.812;7.132;2024-01-15T00:19:23;20.53;;;10.50;;
4106;SDS011;21906;50.812;7.132;2024-01-15T00:21:49;21.77;;;11.67;;
4106;SDS011;21906;50.812;7.132;2024-01-15T00:24:17;25.20;;;11.13;;
4106;SDS011;21906;50.812;7.132;2024-01-15T00:26:43;21.60;;;11.00;;
4106;SDS011;21906;50.812;7.132;2024-01-15T00:29:09;27.83;;;10.97;;
4106;SDS011;21906;50.812;7.132;2024-01-15T00:31:34;16.50;;;10.00;;
4106;SDS011;21906;50.812;7.132;2024-01-15T00:34:00;20.57;;;10.23;;
4106;SDS011;21906;50.812;7.132;2024-01-15T00:36:27;20.50;;;11.33;;
4106;SDS011;21906;50.812;7.132;2024-01-15T00:38:53;21.20;;;10.37;;
4106;SDS011;21906;50.812;7.132;2024-01-15T00:41:19;21.10;;;9.83;;
4106;SDS011;21906;50.812;7.132;2024-01-15T00:43:45;20.23;;;11.33;;
4106;SDS011;21906;50.812;7.132;2024-01-15T00:46:11;24.83;;;11.03;;
4106;SDS011;21906;50.812;7.132;2024-01-15T00:48:37;22.90;;;10.47;;
4106;SDS011;21906;50.812;7.132;2024-01-15T00:51:06;20.77;;;11.40;;
4106;SDS011;21906;50.812;7.132;2024-01-15T00:53:32;24.90;;;10.97;;
4106;SDS011;21906;50.812;7.132;2024-01-15T00:55:58;24.77;;;10.90;;
4106;SDS011;21906;50.812;7.132;2024-01-15T00:58:23;21.43;;;11.13;;
4106;SDS011;21906;50.812;7.132;2024-01-15T01:00:49;20.87;;;11.10;;
4106;SDS011;21906;50.812;7.132;2024-01-15T01:03:14;21.27;;;11.13;;
4106;SDS011;21906;50.812;7.132;2024-01-15T01:05:40;20.37;;;10.83;;
4106;SDS011;21906;50.812;7.132;2024-01-15T01:08:09;20.60;;;9.93;;
4106;SDS011;21906;50.812;7.132;2024-01-15T01:10:35;18.47;;;9.50;;
4106;SDS011;21906;50.812;7.132;2024-01-15T01:13:01;22.20;;;10.30;;
4106;SDS011;21906;50.812;7.132;2024-01-15T01:15:26;20.70;;;10.60;;
4106;SDS011;21906;50.812;7.132;2024-01-15T01:17:52;22.50;;;11.30;;
4106;SDS011;21906;50.812;7.132;2024-01-15T01:20:18;20.60;;;10.50;;
4106;SDS011;21906;50.812;7.132;2024-01-15T01:22:43;22.47;;;10.80;;
4106;SDS011;21906;50.812;7.132;2024-01-15T01:25:09;21.53;;;10.83;;
4106;SDS011;21906;50.812;7.132;2024-01-15T01:27:35;21.30;;;10.63;;
4106;SDS011;21906;50.812;7.132;2024-01-15T01:30:00;24.77;;;12.00;;
4106;SDS011;21906;50.812;7.132;2024-01-15T01:32:26;21.33;;;10.47;;
4106;SDS011;21906;50.812;7.132;2024-01-15T01:34:52;23.97;;;11.20;;
4106;SDS011;21906;50.812;7.132;2024-01-15T01:37:18;21.80;;;11.53;;
4106;SDS011;21906;50.812;7.132;2024-01-15T01:39:44;22.57;;;11.80;;
4106;SDS011;21906;50.812;7.132;2024-01-15T01:42:10;22.73;;;11.93;;
4106;SDS011;21906;50.812;7.132;2024-01-15T01:44:37;25.40;;;12.10;;
4106;SDS011;21906;50.812;7.132;2024-01-15T01:47:03;24.03;;;11.60;;
4106;SDS011;21906;50.812;7.132;2024-01-15T01:49:30;24.10;;;12.20;;
4106;SDS011;21906;50.812;7.132;2024-01-15T01:51:56;21.20;;;11.87;;
4106;SDS011;21906;50.812;7.132;2024-01-15T01:54:23;25.70;;;12.87;;
4106;SDS011;21906;50.812;7.132;2024-01-15T01:56:51;23.53;;;12.77;;
4106;SDS011;21906;50.812;7.132;2024-01-15T01:59:17;24.13;;;12.50;;
4106;SDS011;21906;50.812;7.132;2024-01-15T02:01:43;24.87;;;12.20;;
4106;SDS011;21906;50.812;7.132;2024-01-15T02:04:10;24.20;;;12.93;;
4106;SDS011;21906;50.812;7.132;2024-01-15T02:06:36;24.57;;;13.27;;
4106;SDS011;21906;50.812;7.132;2024-01-15T02:09:03;23.07;;;13.03;;
4106;SDS011;21906;50.812;7.132;2024-01-15T02:11:30;25.60;;;13.10;;
4106;SDS011;21906;50.812;7.132;2024-01-15T02:13:56;27.13;;;12.60;;
4106;SDS011;21906;50.812;7.132;2024-01-15T02:16:22;30.47;;;12.97;;
4106;SDS011;21906;50.812;7.132;2024-01-15T02:18:48;25.50;;;12.70;;
4106;SDS011;21906;50.812;7.132;2024-01-15T02:21:13;25.00;;;12.83;;
4106;SDS011;21906;50.812;7.132;2024-01-15T02:23:39;25.67;;;12.47;;
4106;SDS011;21906;50.812;7.132;2024-01-15T02:26:05;21.90;;;12.10;;
4106;SDS011;21906;50.812;7.132;2024-01-15T02:28:31;26.10;;;11.63;;
4106;SDS011;21906;50.812;7.132;2024-01-15T02:30:58;27.80;;;13.83;;
4106;SDS011;21906;50.812;7.132;2024-01-15T02:33:24;27.67;;;13.40;;
4106;SDS011;21906;50.812;7.132;2024-01-15T02:35:49;26.40;;;12.53;;
4106;SDS011;21906;50.812;7.132;2024-01-15T02:38:15;26.50;;;12.70;;
4106;SDS011;21906;50.812;7.132;2024-01-15T02:40:41;27.50;;;12.87;;
4106;SDS011;21906;50.812;7.132;2024-01-15T02:43:08;27.13;;;14.37;;
4106;SDS011;21906;50.812;7.132;2024-01-15T02:45:36;27.17;;;12.90;;
4106;SDS011;21906;50.812;7.132;2024-01-15T02:48:02;24.73;;;12.70;;
4106;SDS011;21906;50.812;7.132;2024-01-15T02:50:28;25.63;;;13.60;;
4106;SDS011;21906;50.812;7.132;2024-01-15T02:52:53;27.00;;;12.73;;
4106;SDS011;21906;50.812;7.132;2024-01-15T02:55:19;24.87;;;12.70;;
4106;SDS011;21906;50.812;7.132;2024-01-15T02:57:45;23.73;;;12.77;;
4106;SDS011;21906;50.812;7.132;2024-01-15T03:00:11;26.13;;;12.50;;
4106;SDS011;21906;50.812;7.132;2024-01-15T03:02:37;25.10;;;12.70;;
4106;SDS011;21906;50.812;7.132;2024-01-15T03:05:08;26.00;;;12.20;;
4106;SDS011;21906;50.812;7.132;2024-01-15T03:07:34;25.27;;;12.20;;
4106;SDS011;21906;50.812;7.132;2024-01-15T03:10:00;24.90;;;13.20;;
4106;SDS011;21906;50.812;7.132;2024-01-15T03:12:26;25.13;;;12.43;;
4106;SDS011;21906;50.812;7.132;2024-01-15T03:14:51;22.00;;;12.10;;
4106;SDS011;21906;50.812;7.132;2024-01-15T03:17:17;27.00;;;12.97;;
4106;SDS011;21906;50.812;7.132;2024-01-15T03:19:43;25.50;;;11.67;;
4106;SDS011;21906;50.812;7.132;2024-01-15T03:22:08;27.70;;;13.20;;
4106;SDS011;21906;50.812;7.132;2024-01-15T03:24:34;25.00;;;12.93;;
4106;SDS011;21906;50.812;7.132;2024-01-15T03:27:00;20.77;;;11.70;;
4106;SDS011;21906;50.812;7.132;2024-01-15T03:29:26;22.70;;;11.77;;
4106;SDS011;21906;50.812;7.132;2024-01-15T03:31:52;21.67;;;11.70;;
4106;SDS011;21906;50.812;7.132;2024-01-15T03:34:18;21.87;;;11.53;;
4106;SDS011;21906;50.812;7.132;2024-01-15T03:36:44;21.87;;;11.13;;
4106;SDS011;21906;50.812;7.132;2024-01-15T03:39:09;19.63;;;11.57;;
4106;SDS011;21906;50.812;7.132;2024-01-15T03:41:35;18.87;;;11.13;;
4106;SDS011;21906;50.812;7.132;2024-01-15T03:44:01;21.67;;;11.07;;
4106;SDS011;21906;50.812;7.132;2024-01-15T03:46:26;20.83;;;11.03;;
4106;SDS011;21906;50.812;7.132;2024-01-15T03:48:52;18.43;;;10.37;;
4106;SDS011;21906;50.812;7.132;2024-01-15T03:51:18;23.50;;;11.77;;
4106;SDS011;21906;50.812;7.132;2024-01-15T03:53:44;18.30;;;10.70;;
4106;SDS011;21906;50.812;7.132;2024-01-15T03:56:09;20.10;;;11.40;;
4106;SDS011;21906;50.812;7.132;2024-01-15T03:58:35;19.47;;;10.63;;
4106;SDS011;21906;50.812;7.132;2024-01-15T04:01:01;20.80;;;10.67;;
4106;SDS011;21906;50.812;7.132;2024-01-15T04:03:27;17.93;;;10.57;;
4106;SDS011;21906;50.812;7.132;2024-01-15T04:05:52;18.67;;;10.23;;
4106;SDS011;21906;50.812;7.132;2024-01-15T04:08:18;19.93;;;10.73;;
4106;SDS011;21906;50.812;7.132;2024-01-15T04:10:44;21.00;;;11.37;;
4106;SDS011;21906;50.812;7.132;2024-01-15T04:13:09;25.33;;;12.80;;
4106;SDS011;21906;50.812;7.132;2024-01-15T04:15:35;19.73;;;10.83;;
4106;SDS011;21906;50.812;7.132;2024-01-15T04:18:02;24.93;;;12.00;;
4106;SDS011;21906;50.812;7.132;2024-01-15T04:20:28;22.10;;;12.80;;
4106;SDS011;21906;50.812;7.132;2024-01-15T04:22:56;22.60;;;11.77;;
4106;SDS011;21906;50.812;7.132;2024-01-15T04:25:22;19.83;;;11.73;;
4106;SDS011;21906;50.812;7.132;2024-01-15T04:27:47;25.50;;;12.10;;
4106;SDS011;21906;50.812;7.132;2024-01-15T04:30:13;24.23;;;12.60;;
4106;SDS011;21906;50.812;7.132;2024-01-15T04:32:39;24.90;;;12.03;;
4106;SDS011;21906;50.812;7.132;2024-01-15T04:35:04;18.60;;;10.70;;
4106;SDS011;21906;50.812;7.132;2024-01-15T04:37:30;20.47;;;12.00;;
4106;SDS011;21906;50.812;7.132;2024-01-15T04:39:56;20.90;;;11.70;;
4106;SDS011;21906;50.812;7.132;2024-01-15T04:42:22;23.80;;;12.47;;
4106;SDS011;21906;50.812;7.132;2024-01-15T04:44:48;22.27;;;12.40;;
4106;SDS011;21906;50.812;7.132;2024-01-15T04:47:14;18.17;;;10.33;;
4106;SDS011;21906;50.812;7.132;2024-01-15T04:49:39;19.30;;;10.60;;
4106;SDS011;21906;50.812;7.132;2024-01-15T04:52:05;19.63;;;10.53;;
4106;SDS011;21906;50.812;7.132;2024-01-15T04:54:31;17.67;;;9.50;;
4106;SDS011;21906;50.812;7.132;2024-01-15T04:56:56;16.70;;;9.30;;
4106;SDS011;21906;50.812;7.132;2024-01-15T04:59:22;16.57;;;9.60;;
4106;SDS011;21906;50.812;7.132;2024-01-15T05:01:48;20.73;;;10.00;;
4106;SDS011;21906;50.812;7.132;2024-01-15T05:04:14;20.00;;;10.20;;
4106;SDS011;21906;50.812;7.132;2024-01-15T05:06:40;16.13;;;9.20;;
4106;SDS011;21906;50.812;7.132;2024-01-15T05:09:05;17.90;;;10.00;;
4106;SDS011;21906;50.812;7.132;2024-01-15T05:11:32;18.00;;;9.10;;
4106;SDS011;21906;50.812;7.132;2024-01-15T05:13:57;14.83;;;9.50;;
4106;SDS011;21906;50.812;7.132;2024-01-15T05:16:23;13.83;;;8.90;;
4106;SDS011;21906;50.812;7.132;2024-01-15T05:18:49;12.73;;;8.80;;
4106;SDS011;21906;50.812;7.132;2024-01-15T05:21:15;15.63;;;9.10;;
4106;SDS011;21906;50.812;7.132;2024-01-15T05:23:40;15.97;;;9.27;;
4106;SDS011;21906;50.812;7.132;2024-01-15T05:26:06;14.70;;;9.23;;
4106;SDS011;21906;50.812;7.132;2024-01-15T05:28:34;14.47;;;9.10;;
4106;SDS011;21906;50.812;7.132;2024-01-15T05:31:00;15.20;;;9.30;;
4106;SDS011;21906;50.812;7.132;2024-01-15T05:33:26;17.60;;;9.70;;
4106;SDS011;21906;50.812;7.132;2024-01-15T05:35:52;14.60;;;8.90;;
4106;SDS011;21906;50.812;7.132;2024-01-15T05:38:18;16.83;;;9.70;;
4106;SDS011;21906;50.812;7.132;2024-01-15T05:40:44;17.50;;;9.70;;
4106;SDS011;21906;50.812;7.132;2024-01-15T05:43:10;16.97;;;9.70;;
4106;SDS011;21906;50.812;7.132;2024-01-15T05:45:37;17.57;;;10.23;;
4106;SDS011;21906;50.812;7.132;2024-01-15T05:48:03;16.03;;;10.13;;
4106;SDS011;21906;50.812;7.132;2024-01-15T05:50:29;17.73;;;10.47;;
4106;SDS011;21906;50.812;7.132;2024-01-15T05:52:55;21.93;;;10.07;;
4106;SDS011;21906;50.812;7.132;2024-01-15T05:55:20;15.93;;;9.37;;
4106;SDS011;21906;50.812;7.132;2024-01-15T05:57:46;19.30;;;10.43;;
4106;SDS011;21906;50.812;7.132;2024-01-15T06:00:12;16.17;;;9.93;;
4106;SDS011;21906;50.812;7.132;2024-01-15T06:02:38;16.83;;;10.40;;
4106;SDS011;21906;50.812;7.132;2024-01-15T06:05:04;21.00;;;10.40;;
4106;SDS011;21906;50.812;7.132;2024-01-15T06:07:31;18.60;;;10.40;;
4106;SDS011;21906;50.812;7.132;2024-01-15T06:09:58;17.23;;;9.97;;
4106;SDS011;21906;50.812;7.132;2024-01-15T06:12:24;18.77;;;10.27;;
4106;SDS011;21906;50.812;7.132;2024-01-15T06:14:50;21.60;;;10.50;;
4106;SDS011;21906;50.812;7.132;2024-01-15T06:17:18;20.00;;;10.73;;
4106;SDS011;21906;50.812;7.132;2024-01-15T06:19:44;15.60;;;9.30;;
4106;SDS011;21906;50.812;7.132;2024-01-15T06:22:09;16.93;;;9.57;;
4106;SDS011;21906;50.812;7.132;2024-01-15T06:24:36;15.47;;;9.70;;
4106;SDS011;21906;50.812;7.132;2024-01-15T06:27:03;15.67;;;9.33;;
4106;SDS011;21906;50.812;7.132;2024-01-15T06:29:29;15.00;;;9.33;;
4106;SDS011;21906;50.812;7.132;2024-01-15T06:31:55;17.93;;;10.57;;
4106;SDS011;21906;50.812;7.132;2024-01-15T06:34:20;14.17;;;9.17;;
4106;SDS011;21906;50.812;7.132;2024-01-15T06:36:46;14.73;;;9.50;;
4106;SDS011;21906;50.812;7.132;2024-01-15T06:39:12;17.83;;;9.80;;
4106;SDS011;21906;50.812;7.132;2024-01-15T06:41:38;15.83;;;9.73;;
4106;SDS011;21906;50.812;7.132;2024-01-15T06:44:08;18.70;;;9.87;;
4106;SDS011;21906;50.812;7.132;2024-01-15T06:46:35;17.83;;;10.20;;
4106;SDS011;21906;50.812;7.132;2024-01-15T06:49:01;18.90;;;10.00;;
4106;SDS011;21906;50.812;7.132;2024-01-15T06:51:27;18.67;;;10.80;;
4106;SDS011;21906;50.812;7.132;2024-01-15T06:53:54;15.10;;;9.60;;
4106;SDS011;21906;50.812;7.132;2024-01-15T06:56:19;17.20;;;10.10;;
4106;SDS011;21906;50.812;7.132;2024-01-15T06:58:45;18.63;;;10.87;;
4106;SDS011;21906;50.812;7.132;2024-01-15T07:01:11;18.17;;;10.80;;
4106;SDS011;21906;50.812;7.132;2024-01-15T07:03:37;17.73;;;10.40;;
4106;SDS011;21906;50.812;7.132;2024-01-15T07:06:03;17.90;;;11.30;;
4106;SDS011;21906;50.812;7.132;2024-01-15T07:08:29;19.57;;;10.67;;
4106;SDS011;21906;50.812;7.132;2024-01-15T07:10:55;20.10;;;10.80;;
4106;SDS011;21906;50.812;7.132;2024-01-15T07:13:20;19.00;;;10.90;;
4106;SDS011;21906;50.812;7.132;2024-01-15T07:15:46;19.50;;;10.73;;
4106;SDS011;21906;50.812;7.132;2024-01-15T07:18:12;20.70;;;12.23;;
4106;SDS011;21906;50.812;7.132;2024-01-15T07:20:37;21.13;;;11.90;;
4106;SDS011;21906;50.812;7.132;2024-01-15T07:23:03;20.00;;;12.00;;
4106;SDS011;21906;50.812;7.132;2024-01-15T07:25:29;19.97;;;11.47;;
4106;SDS011;21906;50.812;7.132;2024-01-15T07:27:55;21.97;;;11.63;;
4106;SDS011;21906;50.812;7.132;2024-01-15T07:30:20;16.97;;;10.80;;
4106;SDS011;21906;50.812;7.132;2024-01-15T07:32:47;20.27;;;10.97;;
4106;SDS011;21906;50.812;7.132;2024-01-15T07:35:13;17.10;;;10.53;;
4106;SDS011;21906;50.812;7.132;2024-01-15T07:37:42;18.80;;;11.43;;
4106;SDS011;21906;50.812;7.132;2024-01-15T07:40:08;20.23;;;11.57;;
4106;SDS011;21906;50.812;7.132;2024-01-15T07:42:34;22.90;;;10.90;;
4106;SDS011;21906;50.812;7.132;2024-01-15T07:45:00;17.27;;;10.90;;
4106;SDS011;21906;50.812;7.132;2024-01-15T07:47:26;18.30;;;10.67;;
4106;SDS011;21906;50.812;7.132;2024-01-15T07:49:52;20.27;;;10.70;;
4106;SDS011;21906;50.812;7.132;2024-01-15T07:52:18;18.63;;;10.67;;
4106;SDS011;21906;50.812;7.132;2024-01-15T07:54:44;21.13;;;10.40;;
4106;SDS011;21906;50.812;7.132;2024-01-15T07:57:10;16.47;;;10.60;;
4106;SDS011;21906;50.812;7.132;2024-01-15T07:59:36;16.50;;;10.73;;
4106;SDS011;21906;50.812;7.132;2024-01-15T08:02:02;21.83;;;11.27;;
4106;SDS011;21906;50.812;7.132;2024-01-15T08:04:28;20.80;;;10.47;;
4106;SDS011;21906;50.812;7.132;2024-01-15T08:06:53;17.33;;;10.60;;
4106;SDS011;21906;50.812;7.132;2024-01-15T08:09:19;17.10;;;9.83;;
4106;SDS011;21906;50.812;7.132;2024-01-15T08:11:45;15.63;;;10.23;;
4106;SDS011;21906;50.812;7.132;2024-01-15T08:14:11;13.83;;;9.30;;
4106;SDS011;21906;50.812;7.132;2024-01-15T08:16:37;12.60;;;8.80;;
4106;SDS011;21906;50.812;7.132;2024-01-15T08:19:03;15.53;;;9.63;;
4106;SDS011;21906;50.812;7.132;2024-01-15T08:21:29;25.60;;;10.20;;
4106;SDS011;21906;50.812;7.132;2024-01-15T08:23:57;15.57;;;9.80;;
4106;SDS011;21906;50.812;7.132;2024-01-15T08:26:23;15.33;;;9.27;;
4106;SDS011;21906;50.812;7.132;2024-01-15T08:28:49;14.60;;;10.17;;
4106;SDS011;21906;50.812;7.132;2024-01-15T08:31:15;16.07;;;9.67;;
4106;SDS011;21906;50.812;7.132;2024-01-15T08:33:40;13.90;;;9.73;;
4106;SDS011;21906;50.812;7.132;2024-01-15T08:36:06;19.90;;;10.20;;
4106;SDS011;21906;50.812;7.132;2024-01-15T08:38:32;15.27;;;9.20;;
4106;SDS011;21906;50.812;7.132;2024-01-15T08:40:58;20.23;;;9.30;;
4106;SDS011;21906;50.812;7.132;2024-01-15T08:43:25;17.70;;;9.57;;
4106;SDS011;21906;50.812;7.132;2024-01-15T08:45:52;16.30;;;9.63;;
4106;SDS011;21906;50.812;7.132;2024-01-15T08:48:18;24.03;;;10.30;;
4106;SDS011;21906;50.812;7.132;2024-01-15T08:50:44;15.90;;;10.10;;
4106;SDS011;21906;50.812;7.132;2024-01-15T08:53:13;16.30;;;9.70;;
4106;SDS011;21906;50.812;7.132;2024-01-15T08:55:39;21.10;;;9.97;;
4106;SDS011;21906;50.812;7.132;2024-01-15T08:58:06;19.00;;;9.37;;
4106;SDS011;21906;50.812;7.132;2024-01-15T09:00:32;16.47;;;9.83;;
4106;SDS011;21906;50.812;7.132;2024-01-15T09:02:57;18.87;;;9.20;;
4106;SDS011;21906;50.812;7.132;2024-01-15T09:05:23;14.07;;;9.00;;
4106;SDS011;21906;50.812;7.132;2024-01-15T09:07:49;16.07;;;9.40;;
4106;SDS011;21906;50.812;7.132;2024-01-15T09:10:17;18.00;;;10.50;;
4106;SDS011;21906;50.812;7.132;2024-01-15T09:12:43;17.10;;;9.53;;
4106;SDS011;21906;50.812;7.132;2024-01-15T09:15:09;19.10;;;10.40;;
4106;SDS011;21906;50.812;7.132;2024-01-15T09:17:35;21.30;;;11.10;;
4106;SDS011;21906;50.812;7.132;2024-01-15T09:20:00;16.90;;;9.73;;
4106;SDS011;21906;50.812;7.132;2024-01-15T09:22:26;16.90;;;10.40;;
4106;SDS011;21906;50.812;7.132;2024-01-15T09:24:52;14.57;;;9.80;;
4106;SDS011;21906;50.812;7.132;2024-01-15T09:27:18;14.87;;;9.50;;
4106;SDS011;21906;50.812;7.132;2024-01-15T09:29:44;14.77;;;9.67;;
4106;SDS011;21906;50.812;7.132;2024-01-15T09:32:11;18.37;;;10.47;;
4106;SDS011;21906;50.812;7.132;2024-01-15T09:34:37;15.83;;;9.73;;
4106;SDS011;21906;50.812;7.132;2024-01-15T09:37:03;16.80;;;10.20;;
4106;SDS011;21906;50.812;7.132;2024-01-15T09:39:29;17.30;;;9.57;;
4106;SDS011;21906;50.812;7.132;2024-01-15T09:41:55;14.17;;;8.67;;
4106;SDS011;21906;50.812;7.132;2024-01-15T09:44:21;15.97;;;9.83;;
4106;SDS011;21906;50.812;7.132;2024-01-15T09:46:47;18.90;;;9.00;;
4106;SDS011;21906;50.812;7.132;2024-01-15T09:49:15;13.00;;;8.53;;
4106;SDS011;21906;50.812;7.132;2024-01-15T09:51:42;10.43;;;8.20;;
4106;SDS011;21906;50.812;7.132;2024-01-15T09:54:08;11.97;;;8.27;;
4106;SDS011;21906;50.812;7.132;2024-01-15T09:56:35;14.23;;;8.47;;
4106;SDS011;21906;50.812;7.132;2024-01-15T09:59:01;11.80;;;8.00;;
4106;SDS011;21906;50.812;7.132;2024-01-15T10:01:29;12.60;;;7.90;;
4106;SDS011;21906;50.812;7.132;2024-01-15T10:03:56;17.43;;;7.73;;
4106;SDS011;21906;50.812;7.132;2024-01-15T10:06:22;13.80;;;7.67;;
4106;SDS011;21906;50.812;7.132;2024-01-15T10:08:48;10.87;;;7.80;;
4106;SDS011;21906;50.812;7.132;2024-01-15T10:11:16;10.67;;;8.10;;
4106;SDS011;21906;50.812;7.132;2024-01-15T10:13:45;9.40;;;7.00;;
4106;SDS011;21906;50.812;7.132;2024-01-15T10:16:18;8.67;;;6.03;;
4106;SDS011;21906;50.812;7.132;2024-01-15T10:18:44;9.37;;;6.47;;
4106;SDS011;21906;50.812;7.132;2024-01-15T10:21:10;9.67;;;6.80;;
4106;SDS011;21906;50.812;7.132;2024-01-15T10:23:36;12.73;;;7.17;;
4106;SDS011;21906;50.812;7.132;2024-01-15T10:26:02;7.33;;;6.53;;
4106;SDS011;21906;50.812;7.132;2024-01-15T10:28:29;10.73;;;6.80;;
4106;SDS011;21906;50.812;7.132;2024-01-15T10:30:56;12.90;;;6.50;;
4106;SDS011;21906;50.812;7.132;2024-01-15T10:33:24;10.40;;;6.73;;
4106;SDS011;21906;50.812;7.132;2024-01-15T10:35:56;7.53;;;6.73;;
4106;SDS011;21906;50.812;7.132;2024-01-15T10:38:23;11.30;;;7.37;;
4106;SDS011;21906;50.812;7.132;2024-01-15T10:40:55;10.43;;;7.40;;
4106;SDS011;21906;50.812;7.132;2024-01-15T10:43:22;9.97;;;7.53;;
4106;SDS011;21906;50.812;7.132;2024-01-15T10:45:48;11.87;;;8.13;;
4106;SDS011;21906;50.812;7.132;2024-01-15T10:48:16;10.17;;;7.70;;
4106;SDS011;21906;50.812;7.132;2024-01-15T10:50:47;7.63;;;6.70;;
4106;SDS011;21906;50.812;7.132;2024-01-15T10:53:14;11.50;;;7.47;;
4106;SDS011;21906;50.812;7.132;2024-01-15T10:55:42;8.03;;;6.50;;
4106;SDS011;21906;50.812;7.132;2024-01-15T10:58:08;8.50;;;6.80;;
4106;SDS011;21906;50.812;7.132;2024-01-15T11:00:35;7.90;;;6.63;;
4106;SDS011;21906;50.812;7.132;2024-01-15T11:03:03;8.10;;;6.73;;
4106;SDS011;21906;50.812;7.132;2024-01-15T11:05:36;9.10;;;7.20;;
4106;SDS011;21906;50.812;7.132;2024-01-15T11:08:07;9.30;;;7.17;;
4106;SDS011;21906;50.812;7.132;2024-01-15T11:18:34;9.00;;;5.73;;
4106;SDS011;21906;50.812;7.132;2024-01-15T11:26:37;6.47;;;5.87;;
4106;SDS011;21906;50.812;7.132;2024-01-15T11:32:03;8.70;;;6.50;;
4106;SDS011;21906;50.812;7.132;2024-01-15T11:37:14;8.20;;;7.07;;
4106;SDS011;21906;50.812;7.132;2024-01-15T11:39:41;12.27;;;8.23;;
4106;SDS011;21906;50.812;7.132;2024-01-15T11:42:07;10.80;;;7.50;;
4106;SDS011;21906;50.812;7.132;2024-01-15T11:44:34;11.27;;;8.90;;
4106;SDS011;21906;50.812;7.132;2024-01-15T11:47:02;9.50;;;8.20;;
4106;SDS011;21906;50.812;7.132;2024-01-15T11:52:27;10.77;;;8.60;;
4106;SDS011;21906;50.812;7.132;2024-01-15T11:55:01;10.47;;;8.10;;
4106;SDS011;21906;50.812;7.132;2024-01-15T11:57:53;10.30;;;8.10;;
4106;SDS011;21906;50.812;7.132;2024-01-15T12:00:20;13.53;;;9.07;;
4106;SDS011;21906;50.812;7.132;2024-01-15T12:02:47;10.17;;;7.70;;
4106;SDS011;21906;50.812;7.132;2024-01-15T12:05:14;9.47;;;7.80;;
4106;SDS011;21906;50.812;7.132;2024-01-15T12:07:45;10.90;;;8.57;;
4106;SDS011;21906;50.812;7.132;2024-01-15T12:10:16;11.20;;;8.20;;
4106;SDS011;21906;50.812;7.132;2024-01-15T12:15:31;12.33;;;8.67;;
4106;SDS011;21906;50.812;7.132;2024-01-15T12:17:57;11.67;;;9.30;;
4106;SDS011;21906;50.812;7.132;2024-01-15T12:20:34;11.17;;;8.20;;
4106;SDS011;21906;50.812;7.132;2024-01-15T12:23:00;12.80;;;9.07;;
4106;SDS011;21906;50.812;7.132;2024-01-15T12:25:28;11.57;;;8.33;;
4106;SDS011;21906;50.812;7.132;2024-01-15T12:27:55;12.80;;;8.67;;
4106;SDS011;21906;50.812;7.132;2024-01-15T12:30:22;19.17;;;8.50;;
4106;SDS011;21906;50.812;7.132;2024-01-15T12:32:47;10.60;;;7.53;;
4106;SDS011;21906;50.812;7.132;2024-01-15T12:35:14;9.27;;;7.30;;
4106;SDS011;21906;50.812;7.132;2024-01-15T12:37:40;10.77;;;7.97;;
4106;SDS011;21906;50.812;7.132;2024-01-15T12:40:07;12.47;;;7.50;;
4106;SDS011;21906;50.812;7.132;2024-01-15T12:42:37;14.07;;;8.33;;
4106;SDS011;21906;50.812;7.132;2024-01-15T12:45:05;10.73;;;6.53;;
4106;SDS011;21906;50.812;7.132;2024-01-15T12:47:31;7.43;;;6.40;;
4106;SDS011;21906;50.812;7.132;2024-01-15T12:49:58;15.33;;;7.13;;
4106;SDS011;21906;50.812;7.132;2024-01-15T12:52:29;9.03;;;6.20;;
4106;SDS011;21906;50.812;7.132;2024-01-15T12:54:56;8.60;;;7.20;;
4106;SDS011;21906;50.812;7.132;2024-01-15T12:57:22;8.10;;;6.47;;
4106;SDS011;21906;50.812;7.132;2024-01-15T12:59:48;10.87;;;6.20;;
4106;SDS011;21906;50.812;7.132;2024-01-15T13:02:15;11.53;;;6.77;;
4106;SDS011;21906;50.812;7.132;2024-01-15T13:04:41;7.40;;;5.60;;
4106;SDS011;21906;50.812;7.132;2024-01-15T13:07:07;9.90;;;5.37;;
4106;SDS011;21906;50.812;7.132;2024-01-15T13:09:34;8.03;;;5.23;;
4106;SDS011;21906;50.812;7.132;2024-01-15T13:12:03;7.87;;;5.40;;
4106;SDS011;21906;50.812;7.132;2024-01-15T13:14:30;9.13;;;5.70;;
4106;SDS011;21906;50.812;7.132;2024-01-15T13:16:58;7.70;;;4.90;;
4106;SDS011;21906;50.812;7.132;2024-01-15T13:19:24;7.33;;;5.37;;
4106;SDS011;21906;50.812;7.132;2024-01-15T13:21:50;12.03;;;5.30;;
4106;SDS011;21906;50.812;7.132;2024-01-15T13:24:20;12.10;;;5.57;;
4106;SDS011;21906;50.812;7.132;2024-01-15T13:26:46;9.27;;;5.03;;
4106;SDS011;21906;50.812;7.132;2024-01-15T13:29:12;7.03;;;5.17;;
4106;SDS011;21906;50.812;7.132;2024-01-15T13:31:38;8.63;;;4.93;;
4106;SDS011;21906;50.812;7.132;2024-01-15T13:34:04;7.73;;;5.60;;
4106;SDS011;21906;50.812;7.132;2024-01-15T13:36:30;10.03;;;5.03;;
4106;SDS011;21906;50.812;7.132;2024-01-15T13:38:56;7.70;;;4.40;;
4106;SDS011;21906;50.812;7.132;2024-01-15T13:41:21;7.90;;;5.10;;
4106;SDS011;21906;50.812;7.132;2024-01-15T13:43:52;8.07;;;5.10;;
4106;SDS011;21906;50.812;7.132;2024-01-15T13:46:19;7.10;;;5.30;;
4106;SDS011;21906;50.812;7.132;2024-01-15T13:48:46;5.27;;;4.37;;
4106;SDS011;21906;50.812;7.132;2024-01-15T13:51:12;6.33;;;4.70;;
4106;SDS011;21906;50.812;7.132;2024-01-15T13:53:38;4.80;;;4.50;;
4106;SDS011;21906;50.812;7.132;2024-01-15T13:56:05;5.23;;;4.20;;
4106;SDS011;21906;50.812;7.132;2024-01-15T13:58:31;4.87;;;4.47;;
4106;SDS011;21906;50.812;7.132;2024-01-15T14:01:00;6.43;;;4.00;;
4106;SDS011;21906;50.812;7.132;2024-01-15T14:03:26;4.57;;;4.13;;
4106;SDS011;21906;50.812;7.132;2024-01-15T14:05:52;5.53;;;4.90;;
4106;SDS011;21906;50.812;7.132;2024-01-15T14:08:18;7.03;;;4.70;;
4106;SDS011;21906;50.812;7.132;2024-01-15T14:10:44;5.67;;;5.17;;
4106;SDS011;21906;50.812;7.132;2024-01-15T14:13:10;8.33;;;5.33;;
4106;SDS011;21906;50.812;7.132;2024-01-15T14:15:35;5.27;;;4.77;;
4106;SDS011;21906;50.812;7.132;2024-01-15T14:18:01;4.93;;;4.50;;
4106;SDS011;21906;50.812;7.132;2024-01-15T14:20:28;4.77;;;4.40;;
4106;SDS011;21906;50.812;7.132;2024-01-15T14:22:54;7.20;;;5.07;;
4106;SDS011;21906;50.812;7.132;2024-01-15T14:25:20;7.77;;;4.80;;
4106;SDS011;21906;50.812;7.132;2024-01-15T14:27:46;5.53;;;4.20;;
4106;SDS011;21906;50.812;7.132;2024-01-15T14:30:12;3.47;;;3.17;;
4106;SDS011;21906;50.812;7.132;2024-01-15T14:32:39;4.63;;;3.17;;
4106;SDS011;21906;50.812;7.132;2024-01-15T14:35:06;3.63;;;3.33;;
4106;SDS011;21906;50.812;7.132;2024-01-15T14:37:34;4.00;;;3.70;;
4106;SDS011;21906;50.812;7.132;2024-01-15T14:40:00;6.13;;;3.57;;
4106;SDS011;21906;50.812;7.132;2024-01-15T14:42:25;3.50;;;3.30;;
4106;SDS011;21906;50.812;7.132;2024-01-15T14:44:51;4.70;;;4.30;;
4106;SDS011;21906;50.812;7.132;2024-01-15T14:47:17;4.00;;;3.60;;
4106;SDS011;21906;50.812;7.132;2024-01-15T14:49:44;3.93;;;3.60;;
4106;SDS011;21906;50.812;7.132;2024-01-15T14:52:10;4.17;;;3.60;;
4106;SDS011;21906;50.812;7.132;2024-01-15T14:54:35;3.37;;;3.17;;
4106;SDS011;21906;50.812;7.132;2024-01-15T14:57:01;3.03;;;2.83;;
4106;SDS011;21906;50.812;7.132;2024-01-15T14:59:27;2.90;;;2.70;;
4106;SDS011;21906;50.812;7.132;2024-01-15T15:01:54;3.80;;;2.90;;
4106;SDS011;21906;50.812;7.132;2024-01-15T15:04:21;2.70;;;2.50;;